Time;durP1;ratioP1;P1;durP2;ratioP2;P2;SDS_P1;SDS_P2;PMS_P1;PMS_P2;Temp;Humidity;BMP_temperature;BMP_pressure;BME280_temperature;BME280_humidity;BME280_pressure;Samples;Min_cycle;Max_cycle;Signal;HPM_P1;HPM_P2
2023/08/01 00:00:38;;;;;;;22.90;17.30;;;16.80;99.90;;;;;;5034669;28;20103;-82
2023/08/01 00:03:04;;;;;;;39.50;36.03;;;16.70;99.90;;;;;;5033146;28;20120;-82
2023/08/01 00:05:29;;;;;;;34.00;31.35;;;16.70;99.90;;;;;;5033365;28;20045;-82
2023/08/01 00:07:55;;;;;;;21.05;18.48;;;16.70;99.90;;;;;;5033225;28;20033;-82
2023/08/01 00:10:21;;;;;;;41.80;38.08;;;16.70;99.90;;;;;;5034537;28;20052;-82
2023/08/01 00:12:46;;;;;;;33.03;30.27;;;16.80;99.90;;;;;;5016462;28;20038;-82
2023/08/01 00:15:12;;;;;;;25.92;23.45;;;16.60;99.90;;;;;;5033262;28;20503;-82
2023/08/01 00:17:37;;;;;;;49.28;45.38;;;16.60;99.90;;;;;;5033887;28;20033;-82
2023/08/01 00:20:04;;;;;;;48.90;45.05;;;16.60;99.90;;;;;;5016556;28;20041;-82
2023/08/01 00:22:30;;;;;;;17.05;15.00;;;16.60;99.90;;;;;;5032818;28;20445;-82
2023/08/01 00:24:55;;;;;;;47.90;43.72;;;16.70;99.90;;;;;;5034212;28;20072;-82
2023/08/01 00:27:21;;;;;;;25.65;22.35;;;16.70;99.90;;;;;;5033864;28;20411;-82
2023/08/01 00:29:47;;;;;;;60.95;56.35;;;16.70;99.90;;;;;;5032803;28;20033;-82
2023/08/01 00:32:12;;;;;;;34.72;31.55;;;16.70;99.90;;;;;;5033931;28;20488;-82
2023/08/01 00:34:38;;;;;;;25.65;23.50;;;16.70;99.90;;;;;;5032659;28;20072;-82
2023/08/01 00:37:05;;;;;;;35.22;32.53;;;16.70;99.90;;;;;;5032620;28;20038;-82
2023/08/01 00:39:30;;;;;;;23.55;19.98;;;16.60;99.90;;;;;;5032304;28;20037;-82
2023/08/01 00:41:56;;;;;;;20.35;18.58;;;16.60;99.90;;;;;;5032123;28;20045;-82
2023/08/01 00:44:22;;;;;;;47.53;44.42;;;16.60;99.90;;;;;;5032631;28;20044;-82
2023/08/01 00:46:48;;;;;;;51.63;48.13;;;16.60;99.90;;;;;;5032433;28;20041;-82
2023/08/01 00:49:14;;;;;;;31.80;29.50;;;16.50;99.90;;;;;;5032733;28;20049;-82
2023/08/01 00:51:40;;;;;;;28.83;26.63;;;16.40;99.90;;;;;;5032516;28;20518;-82
2023/08/01 00:54:06;;;;;;;26.85;24.58;;;16.30;99.90;;;;;;5033882;28;20132;-82
2023/08/01 00:56:32;;;;;;;36.97;34.28;;;16.30;99.90;;;;;;5031929;28;20562;-82
2023/08/01 00:58:58;;;;;;;34.45;31.98;;;16.20;99.90;;;;;;5032583;28;20045;-82
2023/08/01 01:01:24;;;;;;;21.92;19.48;;;16.20;99.90;;;;;;5016025;28;20484;-82
2023/08/01 01:03:51;;;;;;;46.22;42.80;;;16.20;99.90;;;;;;5032053;28;20042;-82
2023/08/01 01:06:48;;;;;;;18.10;16.33;;;16.20;99.90;;;;;;5032422;28;20116;-82
2023/08/01 01:09:16;;;;;;;42.03;39.05;;;16.20;99.90;;;;;;5032108;28;20076;-82
2023/08/01 01:11:42;;;;;;;39.85;36.67;;;16.20;99.90;;;;;;5031778;28;20388;-82
2023/08/01 01:14:07;;;;;;;48.92;45.40;;;16.20;99.90;;;;;;5032086;28;20033;-81
2023/08/01 01:16:33;;;;;;;45.00;41.90;;;16.00;99.90;;;;;;5015600;28;20403;-82
2023/08/01 01:18:58;;;;;;;47.38;44.17;;;16.10;99.90;;;;;;5015286;28;20060;-82
2023/08/01 01:21:24;;;;;;;55.22;51.40;;;16.10;99.90;;;;;;5015581;28;20041;-82
2023/08/01 01:23:52;;;;;;;44.67;41.60;;;16.10;99.90;;;;;;5031753;28;20049;-82
2023/08/01 01:26:21;;;;;;;26.73;24.65;;;16.10;99.90;;;;;;5031558;28;20037;-82
2023/08/01 01:28:48;;;;;;;53.13;48.85;;;16.00;99.90;;;;;;5032016;28;20041;-82
2023/08/01 01:31:15;;;;;;;28.25;25.70;;;16.00;99.90;;;;;;5033113;28;20038;-82
2023/08/01 01:33:41;;;;;;;38.92;36.20;;;16.10;99.90;;;;;;5032864;28;20503;-82
2023/08/01 01:36:06;;;;;;;65.95;61.47;;;16.00;99.90;;;;;;5031683;28;20077;-82
2023/08/01 01:38:32;;;;;;;24.88;20.58;;;15.90;99.90;;;;;;5031470;28;20076;-81
2023/08/01 01:40:58;;;;;;;53.03;49.42;;;15.90;99.90;;;;;;5032056;28;20506;-82
2023/08/01 01:43:23;;;;;;;40.40;37.53;;;15.90;99.90;;;;;;5032871;28;20049;-82
2023/08/01 01:45:49;;;;;;;63.60;59.08;;;15.80;99.90;;;;;;5031306;28;20507;-82
2023/08/01 01:48:14;;;;;;;62.42;58.60;;;15.90;99.90;;;;;;5031443;28;20048;-82
2023/08/01 01:50:40;;;;;;;51.85;48.63;;;15.90;99.90;;;;;;5030656;28;20041;-82
2023/08/01 01:53:06;;;;;;;56.92;52.92;;;15.80;99.90;;;;;;5015039;28;20048;-82
2023/08/01 01:55:31;;;;;;;66.40;62.30;;;15.80;99.90;;;;;;5030953;28;20120;-81
2023/08/01 01:57:57;;;;;;;58.95;54.65;;;15.80;99.90;;;;;;5031317;28;20041;-81
2023/08/01 02:00:22;;;;;;;64.28;59.95;;;15.80;99.90;;;;;;5014817;28;20092;-82
2023/08/01 02:02:48;;;;;;;63.55;59.58;;;15.70;99.90;;;;;;5032448;28;20037;-82
2023/08/01 02:05:14;;;;;;;61.28;57.35;;;15.70;99.90;;;;;;5031108;28;20045;-82
2023/08/01 02:07:39;;;;;;;73.22;68.47;;;15.70;99.90;;;;;;5031102;28;20041;-82
2023/08/01 02:10:05;;;;;;;77.22;72.03;;;15.70;99.90;;;;;;5030517;28;20034;-82
2023/08/01 02:12:31;;;;;;;61.10;57.10;;;15.70;99.90;;;;;;5014535;28;20041;-82
2023/08/01 02:14:58;;;;;;;62.80;58.90;;;15.60;99.90;;;;;;5032109;28;20484;-82
2023/08/01 02:17:24;;;;;;;71.43;66.40;;;15.60;99.90;;;;;;5014661;28;20443;-80
2023/08/01 02:19:50;;;;;;;63.80;59.75;;;15.60;99.90;;;;;;5030698;28;20045;-82
2023/08/01 02:22:15;;;;;;;54.35;50.60;;;15.60;99.90;;;;;;5032002;28;20045;-81
2023/08/01 02:24:41;;;;;;;79.25;74.05;;;15.50;99.90;;;;;;5013679;28;20044;-81
2023/08/01 02:27:07;;;;;;;61.50;57.42;;;15.40;99.90;;;;;;5030536;28;20045;-81
2023/08/01 02:29:32;;;;;;;72.78;68.43;;;15.40;99.90;;;;;;5030923;28;20114;-82
2023/08/01 02:31:58;;;;;;;79.47;74.47;;;15.30;99.90;;;;;;5030450;28;20037;-82
2023/08/01 02:34:23;;;;;;;73.72;69.20;;;15.20;99.90;;;;;;5030741;28;20041;-82
2023/08/01 02:36:50;;;;;;;92.93;87.00;;;15.20;99.90;;;;;;5013954;28;20045;-82
2023/08/01 02:39:15;;;;;;;89.75;84.05;;;15.20;99.90;;;;;;5030514;28;20041;-82
2023/08/01 02:41:41;;;;;;;84.82;79.53;;;15.10;99.90;;;;;;5013836;28;20037;-82
2023/08/01 02:44:06;;;;;;;79.65;74.38;;;15.10;99.90;;;;;;5031813;28;20037;-82
2023/08/01 02:46:32;;;;;;;98.00;91.72;;;15.00;99.90;;;;;;5014180;28;20485;-81
2023/08/01 02:48:57;;;;;;;92.95;86.93;;;14.90;99.90;;;;;;5030600;28;20036;-81
2023/08/01 02:51:23;;;;;;;92.50;86.88;;;14.90;99.90;;;;;;5030114;28;20033;-82
2023/08/01 02:53:49;;;;;;;103.90;97.30;;;14.90;99.90;;;;;;5030545;28;20487;-82
2023/08/01 02:56:15;;;;;;;90.30;84.57;;;14.80;99.90;;;;;;5013701;28;20120;-82
2023/08/01 02:58:42;;;;;;;105.80;98.50;;;14.80;99.90;;;;;;5031783;28;20380;-82
2023/08/01 03:01:13;;;;;;;113.97;106.57;;;14.80;99.90;;;;;;5030030;28;20044;-82
2023/08/01 03:03:38;;;;;;;113.68;106.43;;;14.70;99.90;;;;;;5030298;28;20049;-82
2023/08/01 03:06:04;;;;;;;107.18;100.50;;;14.80;99.90;;;;;;5029973;28;20036;-82
2023/08/01 03:08:30;;;;;;;101.15;94.45;;;14.80;99.90;;;;;;5030059;28;20030;-81
2023/08/01 03:10:57;;;;;;;95.32;88.65;;;14.80;99.90;;;;;;5031561;28;20033;-82
2023/08/01 03:13:23;;;;;;;102.00;94.88;;;14.80;99.90;;;;;;5030176;28;20128;-82
2023/08/01 03:15:49;;;;;;;88.40;82.00;;;14.90;99.90;;;;;;5030077;28;20468;-82
2023/08/01 03:18:14;;;;;;;108.25;100.85;;;15.00;99.90;;;;;;5013486;28;20046;-81
2023/08/01 03:20:40;;;;;;;102.60;95.40;;;15.00;99.90;;;;;;5030745;28;20091;-82
2023/08/01 03:23:06;;;;;;;77.88;72.40;;;15.10;99.90;;;;;;5031021;28;20045;-82
2023/08/01 03:25:32;;;;;;;95.80;89.20;;;15.10;99.90;;;;;;5030026;28;20457;-82
2023/08/01 03:27:58;;;;;;;96.05;89.57;;;15.10;99.90;;;;;;5030173;28;20396;-81
2023/08/01 03:30:24;;;;;;;95.32;88.80;;;15.20;99.90;;;;;;5030031;28;20037;-82
2023/08/01 03:32:49;;;;;;;96.03;88.90;;;15.20;99.90;;;;;;5029943;28;20119;-82
2023/08/01 03:35:15;;;;;;;87.75;81.47;;;15.30;99.90;;;;;;5030780;28;20126;-82
2023/08/01 03:37:41;;;;;;;81.28;75.30;;;15.30;99.90;;;;;;5029867;28;20056;-82
2023/08/01 03:40:10;;;;;;;92.40;85.82;;;15.30;99.90;;;;;;5029824;28;20221;-82
2023/08/01 03:42:36;;;;;;;84.97;79.38;;;15.30;99.90;;;;;;5029730;28;20499;-82
2023/08/01 03:45:03;;;;;;;78.60;73.18;;;15.40;99.90;;;;;;5013337;28;20045;-82
2023/08/01 03:47:28;;;;;;;97.78;91.28;;;15.40;99.90;;;;;;5029991;28;20396;-82
2023/08/01 03:49:54;;;;;;;86.88;80.50;;;15.40;99.90;;;;;;5012826;28;20037;-82
2023/08/01 03:52:19;;;;;;;92.40;85.40;;;15.50;99.90;;;;;;5030900;28;20073;-82
2023/08/01 03:54:46;;;;;;;96.07;89.50;;;15.40;99.90;;;;;;5029690;28;20051;-82
2023/08/01 03:57:12;;;;;;;78.78;73.45;;;15.50;99.90;;;;;;5029632;28;20041;-82
2023/08/01 03:59:38;;;;;;;63.22;58.08;;;15.50;99.90;;;;;;5013556;28;20373;-82
2023/08/01 04:02:03;;;;;;;68.88;64.10;;;15.50;99.90;;;;;;5013138;28;20572;-82
2023/08/01 04:04:30;;;;;;;96.88;90.45;;;15.50;99.90;;;;;;5030276;28;20038;-82
2023/08/01 04:06:56;;;;;;;79.70;74.50;;;15.50;99.90;;;;;;5013017;28;20504;-82
2023/08/01 04:09:22;;;;;;;83.45;78.03;;;15.50;99.90;;;;;;5029567;28;20052;-82
2023/08/01 04:11:48;;;;;;;91.40;85.50;;;15.50;99.90;;;;;;5029473;28;20037;-82
2023/08/01 04:14:13;;;;;;;76.38;71.20;;;15.50;99.90;;;;;;5031657;28;20076;-82
2023/08/01 04:16:39;;;;;;;92.68;86.95;;;15.50;99.90;;;;;;5034579;28;20111;-82
2023/08/01 04:19:05;;;;;;;84.07;78.68;;;15.50;99.90;;;;;;5033634;28;20049;-82
2023/08/01 04:21:30;;;;;;;85.38;79.47;;;15.50;99.90;;;;;;5016285;28;20123;-82
2023/08/01 04:23:56;;;;;;;80.18;74.90;;;15.50;99.90;;;;;;5032786;28;20148;-82
2023/08/01 04:26:21;;;;;;;93.57;87.88;;;15.50;99.90;;;;;;5016351;28;20037;-82
2023/08/01 04:28:47;;;;;;;71.70;66.82;;;15.50;99.90;;;;;;5032904;28;20427;-82
2023/08/01 04:31:13;;;;;;;74.53;69.18;;;15.50;99.90;;;;;;5033033;28;20041;-82
2023/08/01 04:33:39;;;;;;;72.85;68.18;;;15.50;99.90;;;;;;5015857;28;20037;-82
2023/08/01 04:36:05;;;;;;;84.97;79.50;;;15.50;99.90;;;;;;5033921;28;20042;-81
2023/08/01 04:38:30;;;;;;;86.00;80.13;;;15.50;99.90;;;;;;5032612;28;20131;-82
2023/08/01 04:40:56;;;;;;;83.95;78.03;;;15.50;99.90;;;;;;5032885;28;20037;-82
2023/08/01 04:43:21;;;;;;;71.78;67.05;;;15.50;99.90;;;;;;5033918;28;20097;-82
2023/08/01 04:45:47;;;;;;;75.25;70.15;;;15.50;99.90;;;;;;5032491;28;20075;-82
2023/08/01 04:48:13;;;;;;;38.58;35.92;;;15.50;99.90;;;;;;5032094;28;20052;-81
2023/08/01 04:50:38;;;;;;;85.53;80.20;;;15.50;99.90;;;;;;5032332;28;20045;-81
2023/08/01 04:53:06;;;;;;;85.55;79.95;;;15.50;99.90;;;;;;5032389;28;20048;-82
2023/08/01 04:55:31;;;;;;;62.25;58.20;;;15.40;99.90;;;;;;5032389;28;20125;-82
2023/08/01 04:57:57;;;;;;;55.60;51.88;;;15.40;99.90;;;;;;5032533;28;20087;-82
2023/08/01 05:00:23;;;;;;;74.53;69.90;;;15.40;99.90;;;;;;5032595;28;20033;-82
2023/08/01 05:02:49;;;;;;;73.80;69.30;;;15.40;99.90;;;;;;5033002;28;20041;-81
2023/08/01 05:05:15;;;;;;;75.63;71.07;;;15.40;99.90;;;;;;5032051;28;20121;-81
2023/08/01 05:07:41;;;;;;;80.85;75.40;;;15.40;99.90;;;;;;5032146;28;20044;-82
2023/08/01 05:10:08;;;;;;;83.95;78.80;;;15.40;99.90;;;;;;5015740;28;20044;-82
2023/08/01 05:12:33;;;;;;;84.05;78.90;;;15.40;99.90;;;;;;5032255;28;20085;-82
2023/08/01 05:14:59;;;;;;;91.07;85.20;;;15.50;99.90;;;;;;5015958;28;20093;-81
2023/08/01 05:17:25;;;;;;;53.58;50.15;;;15.60;99.90;;;;;;5031530;28;20045;-81
2023/08/01 05:19:50;;;;;;;41.28;38.58;;;15.90;99.90;;;;;;5032097;28;20056;-82
2023/08/01 05:22:16;;;;;;;52.85;49.20;;;16.10;99.90;;;;;;5032028;28;20037;-81
2023/08/01 05:24:41;;;;;;;40.47;37.72;;;16.30;99.90;;;;;;5032242;28;20570;-82
2023/08/01 05:27:07;;;;;;;22.08;20.38;;;16.50;99.90;;;;;;5031536;28;20034;-82
2023/08/01 05:29:33;;;;;;;14.70;13.38;;;16.50;99.90;;;;;;5031942;28;20034;-82
2023/08/01 05:31:58;;;;;;;10.45;8.35;;;16.60;99.90;;;;;;5031250;28;20399;-82
2023/08/01 05:34:24;;;;;;;14.43;12.98;;;16.60;99.90;;;;;;5031515;28;20042;-81
2023/08/01 05:36:50;;;;;;;15.73;12.63;;;16.60;99.90;;;;;;5031916;28;20115;-82
2023/08/01 05:39:16;;;;;;;16.63;15.15;;;16.60;99.90;;;;;;5031623;28;20045;-82
2023/08/01 05:41:42;;;;;;;26.30;24.20;;;16.90;99.90;;;;;;5031861;28;20123;-82
2023/08/01 05:44:08;;;;;;;10.85;8.63;;;17.80;99.90;;;;;;5031574;28;20125;-82
2023/08/01 05:46:34;;;;;;;16.02;14.63;;;18.30;99.90;;;;;;5031266;28;20044;-82
2023/08/01 05:48:59;;;;;;;20.85;18.98;;;18.80;99.90;;;;;;5031308;28;20044;-82
2023/08/01 05:51:25;;;;;;;29.55;27.10;;;19.60;99.90;;;;;;5031423;28;20037;-82
2023/08/01 05:53:51;;;;;;;29.80;27.85;;;20.20;99.90;;;;;;5032418;28;20041;-82
2023/08/01 05:56:16;;;;;;;32.17;29.98;;;20.20;99.90;;;;;;5031651;28;20136;-82
2023/08/01 05:58:42;;;;;;;21.98;20.05;;;20.90;99.90;;;;;;5031521;28;20084;-83
2023/08/01 06:01:10;;;;;;;22.27;20.70;;;21.80;99.90;;;;;;5014522;28;20052;-83
2023/08/01 06:03:35;;;;;;;25.80;24.25;;;21.60;99.90;;;;;;5031041;28;20052;-82
2023/08/01 06:06:01;;;;;;;48.55;45.72;;;21.20;99.90;;;;;;5032256;28;20041;-82
2023/08/01 06:08:27;;;;;;;54.17;51.13;;;21.30;99.90;;;;;;5031373;28;20033;-82
2023/08/01 06:10:52;;;;;;;47.92;45.08;;;21.20;99.90;;;;;;5031255;28;20041;-82
2023/08/01 06:13:18;;;;;;;37.15;35.05;;;20.90;99.90;;;;;;5031022;28;20037;-82
2023/08/01 06:15:44;;;;;;;39.72;37.05;;;20.50;99.90;;;;;;5030440;28;20098;-82
2023/08/01 06:18:11;;;;;;;38.20;35.92;;;20.00;99.90;;;;;;5014386;28;20053;-82
2023/08/01 06:20:37;;;;;;;29.38;27.50;;;19.60;99.90;;;;;;5031073;28;20053;-82
2023/08/01 06:23:03;;;;;;;26.83;24.90;;;19.30;99.90;;;;;;5030905;28;20048;-82
2023/08/01 06:25:28;;;;;;;26.27;24.40;;;19.20;99.90;;;;;;5031015;28;20387;-82
2023/08/01 06:27:54;;;;;;;25.08;23.52;;;19.00;99.90;;;;;;5030663;28;20041;-82
2023/08/01 06:30:19;;;;;;;22.45;20.85;;;18.80;99.90;;;;;;5030391;28;20036;-82
2023/08/01 06:32:45;;;;;;;22.90;21.30;;;18.60;99.90;;;;;;5030506;28;20037;-82
2023/08/01 06:35:11;;;;;;;21.52;19.67;;;18.40;99.90;;;;;;5030768;28;20032;-82
2023/08/01 06:37:36;;;;;;;23.35;21.17;;;18.10;99.90;;;;;;5030358;28;20499;-82
2023/08/01 06:40:02;;;;;;;18.50;17.15;;;18.00;99.90;;;;;;5030682;28;20038;-82
2023/08/01 06:42:28;;;;;;;22.58;21.02;;;17.80;99.90;;;;;;5030418;28;20511;-82
2023/08/01 06:44:54;;;;;;;18.98;17.55;;;17.80;99.90;;;;;;5031265;28;20080;-82
2023/08/01 06:47:19;;;;;;;20.73;19.33;;;17.80;99.90;;;;;;5030390;28;20124;-82
2023/08/01 06:49:45;;;;;;;18.88;17.38;;;17.80;99.90;;;;;;5014005;28;20044;-82
2023/08/01 06:52:10;;;;;;;18.92;17.52;;;17.70;99.90;;;;;;5031561;28;20030;-82
2023/08/01 06:54:36;;;;;;;18.90;17.48;;;17.70;99.90;;;;;;5014147;28;20037;-82
2023/08/01 06:57:02;;;;;;;23.67;21.95;;;17.70;99.90;;;;;;5030236;28;20041;-82
2023/08/01 06:59:27;;;;;;;22.00;20.30;;;17.70;99.90;;;;;;5029905;28;20073;-82
2023/08/01 07:01:53;;;;;;;17.63;16.30;;;17.80;99.90;;;;;;5013741;28;20044;-82
2023/08/01 07:04:19;;;;;;;20.15;18.58;;;17.90;99.90;;;;;;5013818;28;20046;-82
2023/08/01 07:06:45;;;;;;;18.75;17.33;;;18.00;99.90;;;;;;5031746;28;20034;-82
2023/08/01 07:09:10;;;;;;;21.85;20.05;;;18.10;99.90;;;;;;5030143;28;20041;-82
2023/08/01 07:11:36;;;;;;;21.20;19.70;;;18.30;99.90;;;;;;5030378;28;20045;-82
2023/08/01 07:14:02;;;;;;;23.17;21.38;;;18.40;99.90;;;;;;5030052;28;20056;-82
2023/08/01 07:16:27;;;;;;;22.35;21.05;;;18.60;99.90;;;;;;5029981;28;20037;-83
2023/08/01 07:18:54;;;;;;;23.33;21.40;;;18.60;99.90;;;;;;5029871;28;20393;-82
2023/08/01 07:21:20;;;;;;;20.75;19.10;;;18.50;99.90;;;;;;5013505;28;20080;-82
2023/08/01 07:23:47;;;;;;;20.33;19.02;;;18.40;99.90;;;;;;5030104;28;20488;-82
2023/08/01 07:26:12;;;;;;;22.30;20.40;;;18.50;99.90;;;;;;5029976;28;20193;-82
2023/08/01 07:28:38;;;;;;;23.52;21.85;;;18.60;99.90;;;;;;5029881;28;20129;-82
2023/08/01 07:31:05;;;;;;;24.40;22.45;;;18.50;99.90;;;;;;5029890;28;20038;-82
2023/08/01 07:33:32;;;;;;;19.88;18.23;;;18.40;99.90;;;;;;5030214;28;20041;-82
2023/08/01 07:35:58;;;;;;;21.52;19.50;;;18.30;99.90;;;;;;5013470;28;20041;-82
2023/08/01 07:38:24;;;;;;;20.50;18.77;;;18.30;99.90;;;;;;5013806;28;20046;-82
2023/08/01 07:40:50;;;;;;;26.75;24.27;;;18.30;99.90;;;;;;5029980;28;20038;-82
2023/08/01 07:43:16;;;;;;;20.90;19.15;;;18.20;99.90;;;;;;5029720;28;20045;-82
2023/08/01 07:45:41;;;;;;;24.83;22.20;;;18.20;99.90;;;;;;5029752;28;20049;-82
2023/08/01 07:48:07;;;;;;;26.02;23.40;;;18.20;99.90;;;;;;5030436;28;20041;-82
2023/08/01 07:50:33;;;;;;;21.27;19.77;;;18.20;99.90;;;;;;5035135;28;20391;-82
2023/08/01 07:52:58;;;;;;;20.23;18.83;;;18.30;99.90;;;;;;5033913;28;20037;-81
2023/08/01 07:55:24;;;;;;;23.63;21.52;;;18.20;99.90;;;;;;5033564;28;20140;-82
2023/08/01 07:57:50;;;;;;;18.10;16.63;;;18.20;99.90;;;;;;5034358;28;20029;-82
2023/08/01 08:00:16;;;;;;;20.52;18.92;;;18.00;99.90;;;;;;5033532;28;20076;-82
2023/08/01 08:02:43;;;;;;;18.98;17.52;;;18.00;99.90;;;;;;5033704;28;20060;-82
2023/08/01 08:05:09;;;;;;;18.17;16.70;;;17.80;99.90;;;;;;5034696;28;20373;-82
2023/08/01 08:07:36;;;;;;;20.85;19.10;;;17.60;99.90;;;;;;5034709;28;20033;-82
2023/08/01 08:10:03;;;;;;;23.77;21.83;;;17.50;99.90;;;;;;5016766;28;20037;-82
2023/08/01 08:12:28;;;;;;;20.38;18.90;;;17.40;99.90;;;;;;5016225;28;20069;-82
2023/08/01 08:14:54;;;;;;;22.15;20.50;;;17.40;99.90;;;;;;5034524;28;20081;-82
2023/08/01 08:17:20;;;;;;;22.40;20.73;;;17.70;99.90;;;;;;5033082;28;20456;-82
2023/08/01 08:19:46;;;;;;;19.85;18.30;;;17.90;99.90;;;;;;5016409;28;20064;-81
2023/08/01 08:22:11;;;;;;;18.67;17.08;;;18.10;99.90;;;;;;5033024;28;20041;-82
2023/08/01 08:24:37;;;;;;;21.13;19.50;;;18.30;99.90;;;;;;5032940;28;20069;-82
2023/08/01 08:27:04;;;;;;;36.03;33.50;;;18.30;99.90;;;;;;5033774;28;20496;-82
2023/08/01 08:29:31;;;;;;;24.70;22.67;;;18.30;99.90;;;;;;5034189;28;20041;-82
2023/08/01 08:31:57;;;;;;;27.45;25.45;;;18.40;99.90;;;;;;5032904;28;20099;-82
2023/08/01 08:34:22;;;;;;;22.45;20.80;;;18.30;99.90;;;;;;5016296;28;20038;-82
2023/08/01 08:36:50;;;;;;;21.23;19.70;;;18.30;99.90;;;;;;5016537;28;20037;-82
2023/08/01 08:39:16;;;;;;;21.92;20.42;;;18.10;99.90;;;;;;5034102;28;20041;-82
2023/08/01 08:41:52;;;;;;;22.77;20.98;;;18.00;99.90;;;;;;5033476;28;20044;-82
2023/08/01 08:44:20;;;;;;;28.20;26.27;;;17.90;99.90;;;;;;5032988;28;20041;-81
2023/08/01 08:46:49;;;;;;;20.88;19.42;;;17.80;99.90;;;;;;5016144;28;20129;-81
2023/08/01 08:49:17;;;;;;;21.52;19.88;;;17.80;99.90;;;;;;5033784;28;20550;-82
2023/08/01 08:51:45;;;;;;;28.23;26.35;;;17.70;99.90;;;;;;5032775;28;20033;-82
2023/08/01 08:54:11;;;;;;;20.00;18.48;;;17.70;99.90;;;;;;5015472;28;20045;-82
2023/08/01 08:56:38;;;;;;;27.65;25.92;;;17.70;99.90;;;;;;5032379;28;20094;-82
2023/08/01 08:59:04;;;;;;;22.73;21.05;;;17.70;99.90;;;;;;5016206;28;20040;-82
2023/08/01 09:01:32;;;;;;;18.02;16.63;;;17.80;99.90;;;;;;5033589;28;20037;-82
2023/08/01 09:03:57;;;;;;;18.35;17.17;;;17.80;99.90;;;;;;5032172;28;20044;-82
2023/08/01 09:06:36;;;;;;;21.20;19.77;;;17.90;99.90;;;;;;5032508;28;20037;-82
2023/08/01 09:09:06;;;;;;;28.65;26.77;;;18.10;99.90;;;;;;5031698;28;20076;-82
2023/08/01 09:11:44;;;;;;;25.02;23.15;;;18.30;99.90;;;;;;5033730;28;20064;-82
2023/08/01 09:14:10;;;;;;;40.97;38.05;;;18.50;99.90;;;;;;5032215;28;20102;-82
2023/08/01 09:16:35;;;;;;;20.65;19.25;;;18.60;99.90;;;;;;5032005;28;20395;-82
2023/08/01 09:19:02;;;;;;;18.08;16.85;;;18.80;99.90;;;;;;5031931;28;20053;-82
2023/08/01 09:21:33;;;;;;;17.13;15.85;;;18.90;99.90;;;;;;5031892;28;20048;-82
2023/08/01 09:24:08;;;;;;;21.52;19.98;;;19.30;99.90;;;;;;5031664;28;20550;-82
2023/08/01 09:26:34;;;;;;;24.30;22.58;;;19.60;99.90;;;;;;5033267;28;20064;-82
2023/08/01 09:28:59;;;;;;;25.48;23.83;;;19.80;99.90;;;;;;5032135;28;20500;-82
2023/08/01 09:31:34;;;;;;;24.85;22.85;;;19.80;99.90;;;;;;5031993;28;20042;-82
2023/08/01 09:34:05;;;;;;;26.30;24.40;;;19.70;99.90;;;;;;5032979;28;20052;-82
2023/08/01 09:36:31;;;;;;;25.52;23.92;;;19.60;99.90;;;;;;5031734;28;20037;-82
2023/08/01 09:39:01;;;;;;;21.63;19.83;;;19.30;99.90;;;;;;5031261;28;20080;-82
2023/08/01 09:41:28;;;;;;;19.98;18.60;;;19.20;99.90;;;;;;5031858;28;20103;-82
2023/08/01 09:43:54;;;;;;;23.85;22.08;;;19.30;99.90;;;;;;5032906;28;20116;-82
2023/08/01 09:46:20;;;;;;;23.20;21.63;;;19.30;99.90;;;;;;5032903;28;20543;-82
2023/08/01 09:48:46;;;;;;;19.95;18.40;;;19.30;99.90;;;;;;5015096;28;20049;-82
2023/08/01 09:51:14;;;;;;;20.17;18.60;;;19.60;99.90;;;;;;5032601;28;20046;-82
2023/08/01 09:53:54;;;;;;;28.92;27.17;;;19.90;99.90;;;;;;5032295;28;20037;-82
2023/08/01 09:56:25;;;;;;;25.20;23.48;;;20.10;99.90;;;;;;5031648;28;20063;-82
2023/08/01 09:58:52;;;;;;;30.33;28.20;;;20.00;99.90;;;;;;5031280;28;20526;-82
2023/08/01 10:01:20;;;;;;;26.50;24.58;;;19.90;99.90;;;;;;5032381;28;20049;-82
2023/08/01 10:03:48;;;;;;;25.77;24.05;;;20.00;99.90;;;;;;5031014;28;20095;-82
2023/08/01 10:06:19;;;;;;;27.00;25.45;;;19.90;99.90;;;;;;5031382;28;20507;-82
2023/08/01 10:08:46;;;;;;;31.17;29.35;;;19.90;99.90;;;;;;5032415;28;20438;-82
2023/08/01 10:11:14;;;;;;;26.60;24.98;;;19.80;99.90;;;;;;5030461;28;20568;-82
2023/08/01 10:13:42;;;;;;;28.25;26.50;;;19.90;99.90;;;;;;5031137;28;20048;-82
2023/08/01 10:16:08;;;;;;;29.38;27.58;;;19.90;99.90;;;;;;5032149;28;20508;-82
2023/08/01 10:18:34;;;;;;;27.15;25.42;;;19.80;99.90;;;;;;5032073;28;20052;-82
2023/08/01 10:21:01;;;;;;;23.83;22.10;;;19.90;99.90;;;;;;5030496;28;20041;-81
2023/08/01 10:23:27;;;;;;;20.27;18.92;;;19.70;99.90;;;;;;5014326;28;20048;-82
2023/08/01 10:25:54;;;;;;;20.42;18.60;;;19.60;99.90;;;;;;5030834;28;20044;-82
2023/08/01 10:28:30;;;;;;;18.38;16.90;;;19.30;99.90;;;;;;5014155;28;20033;-82
2023/08/01 10:31:13;;;;;;;17.30;15.82;;;18.90;99.90;;;;;;5031326;28;20069;-81
2023/08/01 10:33:41;;;;;;;23.13;21.60;;;18.80;99.90;;;;;;5030839;28;20112;-81
2023/08/01 10:36:17;;;;;;;19.42;17.85;;;18.60;99.90;;;;;;5030383;28;20045;-81
2023/08/01 10:38:53;;;;;;;21.63;19.45;;;18.50;99.90;;;;;;5014105;28;20480;-82
2023/08/01 10:41:40;;;;;;;25.70;23.75;;;18.50;99.90;;;;;;5030542;28;20041;-81
2023/08/01 10:44:13;;;;;;;20.20;18.67;;;18.80;99.90;;;;;;5031360;28;20072;-82
2023/08/01 10:46:50;;;;;;;26.25;24.60;;;19.10;99.90;;;;;;5030751;28;20408;-81
2023/08/01 10:49:16;;;;;;;21.65;19.85;;;19.50;99.90;;;;;;5030453;28;20041;-82
2023/08/01 10:51:43;;;;;;;19.45;17.98;;;20.00;99.90;;;;;;5030183;28;20041;-81
2023/08/01 10:54:25;;;;;;;25.70;23.92;;;20.40;99.90;;;;;;5031740;28;20041;-82
2023/08/01 10:56:53;;;;;;;28.35;26.35;;;20.90;99.90;;;;;;5030372;28;20041;-82
2023/08/01 10:59:20;;;;;;;45.22;42.35;;;21.20;99.90;;;;;;5031626;28;20037;-82
2023/08/01 11:01:51;;;;;;;36.75;34.42;;;21.10;99.90;;;;;;5031764;28;20045;-82
2023/08/01 11:04:18;;;;;;;37.25;35.00;;;20.80;99.90;;;;;;5030342;28;20045;-82
2023/08/01 11:06:45;;;;;;;34.88;32.70;;;20.50;99.90;;;;;;5029816;28;20510;-82
2023/08/01 11:09:19;;;;;;;22.98;21.13;;;19.90;99.90;;;;;;5030425;28;20055;-81
2023/08/01 11:11:47;;;;;;;27.40;25.52;;;19.50;99.90;;;;;;5030225;28;20049;-82
2023/08/01 11:14:14;;;;;;;26.77;24.75;;;19.30;99.90;;;;;;5030267;28;20124;-82
2023/08/01 11:16:40;;;;;;;25.05;23.15;;;19.10;99.90;;;;;;5031551;28;20041;-82
2023/08/01 11:19:06;;;;;;;20.95;19.25;;;19.20;99.90;;;;;;5029399;28;20131;-82
2023/08/01 11:21:35;;;;;;;21.58;19.77;;;19.40;99.90;;;;;;5013558;28;20089;-82
2023/08/01 11:24:06;;;;;;;22.00;20.27;;;19.60;99.90;;;;;;5034883;28;20081;-82
2023/08/01 11:26:32;;;;;;;32.28;29.83;;;20.00;99.90;;;;;;5034312;28;20128;-82
2023/08/01 11:29:04;;;;;;;33.97;31.50;;;20.00;99.90;;;;;;5034337;28;20388;-82
2023/08/01 11:31:31;;;;;;;30.40;28.25;;;20.30;99.90;;;;;;5034004;28;20052;-82
2023/08/01 11:33:57;;;;;;;23.92;22.10;;;20.70;99.90;;;;;;5033667;28;20045;-82
2023/08/01 11:36:29;;;;;;;23.80;22.00;;;21.00;99.90;;;;;;5033903;28;20044;-82
2023/08/01 11:38:58;;;;;;;53.67;50.17;;;21.30;99.90;;;;;;5034077;28;20037;-82
2023/08/01 11:41:26;;;;;;;49.20;46.08;;;21.50;99.90;;;;;;5034113;28;20395;-82
2023/08/01 11:43:54;;;;;;;54.97;51.58;;;21.60;99.90;;;;;;5033757;28;20052;-82
2023/08/01 11:46:20;;;;;;;59.60;56.13;;;21.80;99.90;;;;;;5035135;28;20044;-82
2023/08/01 11:48:52;;;;;;;41.42;39.03;;;22.00;99.90;;;;;;5034546;28;20064;-82
2023/08/01 11:51:18;;;;;;;36.58;33.97;;;22.20;99.90;;;;;;5033660;28;20044;-82
2023/08/01 11:53:43;;;;;;;34.95;32.85;;;22.30;99.90;;;;;;5033879;28;20045;-82
2023/08/01 11:56:21;;;;;;;58.25;54.53;;;22.20;99.90;;;;;;5033505;28;20053;-82
2023/08/01 11:58:47;;;;;;;56.65;53.13;;;22.20;99.90;;;;;;5033739;28;20047;-82
2023/08/01 12:01:13;;;;;;;61.75;58.05;;;22.30;99.90;;;;;;5034902;28;20488;-82
2023/08/01 12:03:53;;;;;;;102.25;96.30;;;22.40;99.90;;;;;;5032864;28;20049;-82
2023/08/01 12:06:24;;;;;;;76.60;72.20;;;22.70;99.90;;;;;;5033691;28;20038;-82
2023/08/01 12:08:51;;;;;;;108.90;102.80;;;22.90;99.90;;;;;;5034775;28;20033;-82
2023/08/01 12:11:21;;;;;;;118.78;112.18;;;22.80;99.90;;;;;;5034536;28;20060;-82
2023/08/01 12:13:47;;;;;;;86.15;81.18;;;23.00;99.90;;;;;;5034523;28;20052;-83
2023/08/01 12:16:15;;;;;;;94.45;88.90;;;23.00;99.90;;;;;;5016914;28;20961;-82
2023/08/01 12:18:42;;;;;;;58.00;54.35;;;22.90;99.90;;;;;;5032710;28;20099;-83
2023/08/01 12:21:08;;;;;;;68.70;64.65;;;22.50;99.90;;;;;;5033147;28;20087;-83
2023/08/01 12:23:35;;;;;;;86.85;81.80;;;22.40;99.90;;;;;;5033076;28;20085;-83